Time;durP1;ratioP1;P1;durP2;ratioP2;P2;SDS_P1;SDS_P2;PMS_P1;PMS_P2;Temp;Humidity;BMP_temperature;BMP_pressure;BME280_temperature;BME280_humidity;BME280_pressure;Samples;Min_cycle;Max_cycle;Signal;HPM_P1;HPM_P2
2022/06/21 00:00:09;;;;;;;13.18;3.08;;;;;;;;;;5028233;28;20063;-77
2022/06/21 00:02:35;;;;;;;8.50;2.83;;;;;;;;;;5028769;28;20040;-76
2022/06/21 00:05:01;;;;;;;10.95;2.95;;;;;;;;;;5022032;28;20041;-77
2022/06/21 00:07:28;;;;;;;10.23;2.95;;;;;;;;;;5032826;28;20032;-77
2022/06/21 00:09:55;;;;;;;6.13;2.67;;;;;;;;;;5028677;28;20057;-77
2022/06/21 00:12:22;;;;;;;6.85;2.83;;;;;;;;;;5012753;28;20026;-77
2022/06/21 00:14:48;;;;;;;8.73;3.30;;;;;;;;;;5013155;28;20044;-77
2022/06/21 00:17:16;;;;;;;7.40;2.67;;;;;;;;;;5019590;28;20036;-77
2022/06/21 00:19:43;;;;;;;17.10;2.92;;;;;;;;;;5026517;28;20048;-77
2022/06/21 00:22:17;;;;;;;7.40;3.45;;;;;;;;;;5016991;28;20051;-77
2022/06/21 00:24:43;;;;;;;12.55;3.47;;;;;;;;;;5012543;28;20391;-77
2022/06/21 00:27:28;;;;;;;8.40;3.22;;;;;;;;;;5023509;28;20026;-77
2022/06/21 00:29:54;;;;;;;13.52;2.95;;;;;;;;;;5032810;28;20042;-76
2022/06/21 00:32:20;;;;;;;9.27;3.08;;;;;;;;;;5022257;28;20037;-77
2022/06/21 00:34:47;;;;;;;9.85;2.75;;;;;;;;;;5016046;28;20065;-77
2022/06/21 00:37:17;;;;;;;12.35;3.33;;;;;;;;;;5030149;28;20125;-77
2022/06/21 00:39:43;;;;;;;7.93;2.88;;;;;;;;;;5012325;28;20113;-76
2022/06/21 00:42:16;;;;;;;9.25;2.35;;;;;;;;;;5013907;28;20030;-76
2022/06/21 00:44:45;;;;;;;10.60;3.40;;;;;;;;;;5012580;28;20121;-76
2022/06/21 00:47:18;;;;;;;6.45;2.80;;;;;;;;;;5016994;28;20025;-76
2022/06/21 00:49:58;;;;;;;9.30;3.03;;;;;;;;;;5032218;28;20088;-76
2022/06/21 00:52:47;;;;;;;10.05;3.28;;;;;;;;;;5031118;28;20038;-76
2022/06/21 00:55:32;;;;;;;15.75;3.58;;;;;;;;;;5022356;28;20058;-76
2022/06/21 00:57:58;;;;;;;15.15;3.58;;;;;;;;;;5031080;28;20037;-76
2022/06/21 01:00:32;;;;;;;12.05;3.28;;;;;;;;;;5030311;28;20427;-76
2022/06/21 01:03:00;;;;;;;7.60;3.40;;;;;;;;;;5022907;28;20029;-76
2022/06/21 01:05:27;;;;;;;7.72;3.15;;;;;;;;;;5024662;28;20041;-76
2022/06/21 01:07:54;;;;;;;11.77;4.15;;;;;;;;;;5012234;28;20485;-76
2022/06/21 01:10:20;;;;;;;10.25;3.40;;;;;;;;;;5011806;28;20407;-77
2022/06/21 01:12:52;;;;;;;13.85;3.53;;;;;;;;;;5029099;28;20029;-76
2022/06/21 01:15:21;;;;;;;10.60;3.38;;;;;;;;;;5031587;28;20033;-76
2022/06/21 01:17:48;;;;;;;6.45;2.67;;;;;;;;;;5028826;28;20029;-76
2022/06/21 01:20:18;;;;;;;9.88;3.08;;;;;;;;;;5031696;28;20034;-77
2022/06/21 01:22:50;;;;;;;10.43;3.20;;;;;;;;;;5031010;28;20398;-76
2022/06/21 01:25:22;;;;;;;8.85;2.90;;;;;;;;;;5031687;28;20052;-76
2022/06/21 01:27:48;;;;;;;7.00;2.50;;;;;;;;;;5017622;28;20040;-76
2022/06/21 01:30:15;;;;;;;12.00;3.65;;;;;;;;;;5022817;28;20805;-76
2022/06/21 01:32:41;;;;;;;10.43;3.38;;;;;;;;;;5023912;28;20033;-76
2022/06/21 01:35:10;;;;;;;9.77;3.80;;;;;;;;;;5027715;28;20045;-77
2022/06/21 01:37:36;;;;;;;11.07;3.53;;;;;;;;;;5019255;28;20479;-76
2022/06/21 01:40:13;;;;;;;12.35;3.58;;;;;;;;;;5029884;28;20041;-76
2022/06/21 01:42:45;;;;;;;11.73;3.70;;;;;;;;;;5023317;28;20060;-76
2022/06/21 01:45:19;;;;;;;9.60;3.78;;;;;;;;;;5023559;28;20060;-76
2022/06/21 01:47:51;;;;;;;8.05;3.10;;;;;;;;;;5029956;28;20095;-76
2022/06/21 01:50:17;;;;;;;8.07;3.65;;;;;;;;;;5027841;28;20052;-76
2022/06/21 01:52:46;;;;;;;8.95;2.95;;;;;;;;;;5030248;28;20021;-76
2022/06/21 01:55:14;;;;;;;10.02;3.20;;;;;;;;;;5029688;28;20040;-76
2022/06/21 01:57:40;;;;;;;11.68;3.10;;;;;;;;;;5030875;28;20032;-76
2022/06/21 02:00:07;;;;;;;9.05;3.47;;;;;;;;;;5030142;28;20044;-76
2022/06/21 02:02:39;;;;;;;11.10;3.83;;;;;;;;;;5019225;28;20030;-76
2022/06/21 02:05:08;;;;;;;10.57;3.35;;;;;;;;;;5026643;28;20038;-76
2022/06/21 02:07:38;;;;;;;7.03;3.53;;;;;;;;;;5030850;28;20040;-76
2022/06/21 02:10:10;;;;;;;10.25;3.97;;;;;;;;;;5015378;28;20077;-76
2022/06/21 02:12:37;;;;;;;13.90;3.42;;;;;;;;;;5026349;28;20065;-76
2022/06/21 02:15:06;;;;;;;8.48;3.40;;;;;;;;;;5019462;28;20037;-76
2022/06/21 02:17:34;;;;;;;10.70;3.50;;;;;;;;;;5011429;28;20041;-76
2022/06/21 02:20:11;;;;;;;10.60;3.67;;;;;;;;;;5026516;28;20037;-76
2022/06/21 02:22:37;;;;;;;10.38;3.30;;;;;;;;;;5028421;28;20447;-76
2022/06/21 02:25:03;;;;;;;10.18;3.33;;;;;;;;;;5018896;28;20103;-76
2022/06/21 02:27:32;;;;;;;9.68;3.40;;;;;;;;;;5012390;28;20044;-76
2022/06/21 02:29:59;;;;;;;10.50;3.25;;;;;;;;;;5014504;28;20364;-76
2022/06/21 02:32:35;;;;;;;10.73;3.45;;;;;;;;;;5024728;28;20029;-75
2022/06/21 02:35:05;;;;;;;10.40;3.58;;;;;;;;;;5018713;28;20040;-75
2022/06/21 02:37:32;;;;;;;12.38;3.40;;;;;;;;;;5023193;28;20026;-76
2022/06/21 02:40:00;;;;;;;9.25;3.85;;;;;;;;;;5030067;28;20079;-76
2022/06/21 02:42:30;;;;;;;10.10;3.00;;;;;;;;;;5029165;28;20052;-76
2022/06/21 02:44:59;;;;;;;9.02;3.67;;;;;;;;;;5021622;28;20113;-75
2022/06/21 02:47:28;;;;;;;12.35;3.47;;;;;;;;;;5012943;28;20036;-76
2022/06/21 02:49:58;;;;;;;10.50;3.40;;;;;;;;;;5028007;28;20791;-76
2022/06/21 02:52:32;;;;;;;9.50;3.47;;;;;;;;;;5027890;28;20075;-76
2022/06/21 02:55:02;;;;;;;8.63;3.05;;;;;;;;;;5028888;28;20045;-76
2022/06/21 02:57:38;;;;;;;9.30;3.08;;;;;;;;;;5028564;28;20041;-75
2022/06/21 03:00:06;;;;;;;9.32;3.55;;;;;;;;;;5029792;28;20037;-76
2022/06/21 03:02:35;;;;;;;44.83;5.13;;;;;;;;;;5024946;28;20038;-76
2022/06/21 03:05:04;;;;;;;24.52;4.18;;;;;;;;;;5009549;28;20116;-75
2022/06/21 03:07:33;;;;;;;13.30;4.03;;;;;;;;;;5013681;28;20038;-75
2022/06/21 03:09:59;;;;;;;10.38;3.55;;;;;;;;;;5016986;28;20099;-76
2022/06/21 03:12:27;;;;;;;11.50;3.08;;;;;;;;;;5011694;28;20022;-76
2022/06/21 03:14:55;;;;;;;6.45;3.30;;;;;;;;;;5018316;28;20034;-75
2022/06/21 03:17:24;;;;;;;10.00;3.25;;;;;;;;;;5009013;28;20044;-76
2022/06/21 03:19:51;;;;;;;7.65;3.28;;;;;;;;;;5029507;28;20040;-76
2022/06/21 03:22:21;;;;;;;9.90;3.65;;;;;;;;;;5020385;28;20025;-75
2022/06/21 03:24:49;;;;;;;10.18;3.42;;;;;;;;;;5029238;28;20146;-75
2022/06/21 03:27:35;;;;;;;10.85;3.58;;;;;;;;;;5024245;28;20037;-75
2022/06/21 03:30:03;;;;;;;7.85;3.97;;;;;;;;;;5027668;28;20502;-76
2022/06/21 03:32:33;;;;;;;7.20;2.92;;;;;;;;;;5029145;28;20407;-76
2022/06/21 03:35:00;;;;;;;11.60;3.53;;;;;;;;;;5028878;28;20046;-76
2022/06/21 03:37:26;;;;;;;14.05;4.05;;;;;;;;;;5018191;28;20026;-76
2022/06/21 03:42:40;;;;;;;15.13;4.68;;;;;;;;;;5013404;28;20048;-76
2022/06/21 03:45:11;;;;;;;10.77;4.22;;;;;;;;;;5028632;28;20040;-75
2022/06/21 03:47:42;;;;;;;10.87;5.27;;;;;;;;;;5024425;28;20105;-76
2022/06/21 03:50:21;;;;;;;13.43;4.03;;;;;;;;;;5026869;28;20073;-76
2022/06/21 03:52:59;;;;;;;11.55;3.35;;;;;;;;;;5012947;28;20761;-76
2022/06/21 03:55:25;;;;;;;9.13;3.95;;;;;;;;;;5012545;28;20124;-75
2022/06/21 03:58:14;;;;;;;9.43;3.83;;;;;;;;;;5012912;28;20072;-76
2022/06/21 04:00:45;;;;;;;9.95;3.67;;;;;;;;;;5006093;28;20049;-75
2022/06/21 04:03:17;;;;;;;11.18;3.45;;;;;;;;;;5022093;28;20468;-76
2022/06/21 04:05:50;;;;;;;12.88;4.50;;;;;;;;;;5031899;28;20026;-76
2022/06/21 04:08:19;;;;;;;12.95;4.10;;;;;;;;;;5032664;28;20352;-76
2022/06/21 04:10:50;;;;;;;9.60;4.05;;;;;;;;;;5023463;28;20041;-75
2022/06/21 04:13:16;;;;;;;11.93;4.13;;;;;;;;;;5012791;28;20034;-76
2022/06/21 04:16:09;;;;;;;12.77;4.35;;;;;;;;;;5023256;28;20034;-75
2022/06/21 04:18:42;;;;;;;12.07;4.25;;;;;;;;;;5025711;28;20053;-75
2022/06/21 04:21:14;;;;;;;9.27;3.95;;;;;;;;;;5031851;28;20091;-76
2022/06/21 04:23:44;;;;;;;9.98;4.70;;;;;;;;;;5014602;28;20089;-76
2022/06/21 04:26:10;;;;;;;12.70;4.13;;;;;;;;;;5015144;28;20792;-75
2022/06/21 04:28:55;;;;;;;11.68;4.30;;;;;;;;;;5012805;28;20893;-75
2022/06/21 04:31:35;;;;;;;9.75;4.05;;;;;;;;;;5025552;28;20487;-76
2022/06/21 04:34:06;;;;;;;9.60;4.38;;;;;;;;;;5018959;28;20609;-76
2022/06/21 04:36:37;;;;;;;8.20;4.30;;;;;;;;;;5031631;28;20029;-75
2022/06/21 04:39:14;;;;;;;9.25;4.25;;;;;;;;;;5031695;28;20033;-75
2022/06/21 04:41:40;;;;;;;12.07;4.68;;;;;;;;;;5031299;28;20038;-75
2022/06/21 04:44:11;;;;;;;10.07;5.13;;;;;;;;;;5031768;28;20045;-75
2022/06/21 04:46:44;;;;;;;12.48;4.80;;;;;;;;;;5015063;28;20030;-75
2022/06/21 04:49:30;;;;;;;10.07;4.85;;;;;;;;;;5012080;28;20041;-75
2022/06/21 04:51:59;;;;;;;11.40;5.03;;;;;;;;;;5013326;28;20164;-75
2022/06/21 04:54:26;;;;;;;11.13;4.80;;;;;;;;;;5014174;28;20042;-75
2022/06/21 04:57:04;;;;;;;15.88;5.95;;;;;;;;;;5030212;28;20385;-75
2022/06/21 04:59:30;;;;;;;14.07;5.43;;;;;;;;;;5014973;28;20038;-75
2022/06/21 05:01:58;;;;;;;14.40;5.60;;;;;;;;;;5018900;28;20057;-75
2022/06/21 05:04:29;;;;;;;13.98;5.28;;;;;;;;;;5021323;28;20034;-75
2022/06/21 05:06:56;;;;;;;18.05;5.47;;;;;;;;;;5026259;28;20025;-75
2022/06/21 05:09:24;;;;;;;12.10;5.43;;;;;;;;;;5023589;28;20137;-75
2022/06/21 05:11:56;;;;;;;13.57;5.63;;;;;;;;;;5022662;28;20120;-75
2022/06/21 05:14:21;;;;;;;;;;;;;;;;;;5015427;28;20052;-76
2022/06/21 05:16:50;;;;;;;14.25;4.82;;;;;;;;;;5019237;28;20294;-75
2022/06/21 05:19:24;;;;;;;15.15;5.50;;;;;;;;;;5016432;28;20069;-75
2022/06/21 05:21:56;;;;;;;14.75;5.32;;;;;;;;;;5023330;28;20030;-76
2022/06/21 05:24:22;;;;;;;11.68;5.68;;;;;;;;;;5027292;28;20410;-76
2022/06/21 05:27:06;;;;;;;12.40;5.40;;;;;;;;;;5021325;28;20029;-75
2022/06/21 05:29:37;;;;;;;14.18;5.78;;;;;;;;;;5023267;28;20111;-74
2022/06/21 05:32:04;;;;;;;17.05;5.45;;;;;;;;;;5027138;28;20060;-75
2022/06/21 05:34:35;;;;;;;12.00;5.55;;;;;;;;;;5022059;28;20029;-75
2022/06/21 05:37:03;;;;;;;15.93;5.90;;;;;;;;;;5025657;28;20021;-76
2022/06/21 05:39:32;;;;;;;15.75;6.45;;;;;;;;;;5023247;28;20038;-76
2022/06/21 05:42:01;;;;;;;19.67;6.68;;;;;;;;;;5026959;28;20029;-76
2022/06/21 05:44:27;;;;;;;13.10;5.85;;;;;;;;;;5022490;28;20556;-77
2022/06/21 05:47:07;;;;;;;13.23;5.50;;;;;;;;;;5017717;28;20034;-76
2022/06/21 05:49:34;;;;;;;14.68;5.40;;;;;;;;;;5022241;28;20571;-76
2022/06/21 05:52:02;;;;;;;13.95;5.15;;;;;;;;;;5022681;28;20685;-76
2022/06/21 05:54:33;;;;;;;14.50;5.88;;;;;;;;;;5025778;28;20088;-76
2022/06/21 05:57:01;;;;;;;13.90;5.65;;;;;;;;;;5015584;28;20076;-76
2022/06/21 05:59:27;;;;;;;17.92;6.40;;;;;;;;;;5026828;28;20037;-76
2022/06/21 06:02:02;;;;;;;14.77;5.65;;;;;;;;;;5027460;28;20490;-76
2022/06/21 06:04:27;;;;;;;10.85;4.97;;;;;;;;;;5025287;28;20037;-76
2022/06/21 06:06:55;;;;;;;11.73;5.75;;;;;;;;;;5021907;28;20613;-76
2022/06/21 06:09:34;;;;;;;17.40;5.60;;;;;;;;;;5029055;28;20045;-76
2022/06/21 06:12:05;;;;;;;14.90;5.15;;;;;;;;;;5023396;28;20041;-76
2022/06/21 06:14:52;;;;;;;14.77;4.70;;;;;;;;;;5028187;28;20036;-76
2022/06/21 06:17:26;;;;;;;12.38;4.22;;;;;;;;;;5023411;28;20022;-76
2022/06/21 06:19:58;;;;;;;21.25;4.55;;;;;;;;;;5024998;28;20033;-77
2022/06/21 06:22:43;;;;;;;13.75;4.50;;;;;;;;;;5021490;28;20152;-76
2022/06/21 06:25:19;;;;;;;17.83;4.88;;;;;;;;;;5020463;28;20139;-76
2022/06/21 06:27:48;;;;;;;15.90;5.65;;;;;;;;;;5029318;28;20025;-76
2022/06/21 06:30:18;;;;;;;15.63;5.88;;;;;;;;;;5021804;28;20414;-76
2022/06/21 06:32:48;;;;;;;10.93;4.70;;;;;;;;;;5025863;28;20025;-76
2022/06/21 06:35:20;;;;;;;15.65;4.90;;;;;;;;;;5032065;28;20036;-76
2022/06/21 06:37:46;;;;;;;;;;;;;;;;;;5033863;28;20040;-76
2022/06/21 06:40:27;;;;;;;27.42;7.25;;;;;;;;;;5029231;28;19917;-76
2022/06/21 06:43:13;;;;;;;28.20;9.65;;;;;;;;;;5024060;28;20030;-76
2022/06/21 06:45:41;;;;;;;28.75;10.95;;;;;;;;;;5029600;28;20064;-76
2022/06/21 06:48:12;;;;;;;25.13;12.98;;;;;;;;;;5029587;28;20040;-76
2022/06/21 06:50:46;;;;;;;21.55;13.63;;;;;;;;;;5021282;28;20065;-76
2022/06/21 06:53:29;;;;;;;18.08;8.45;;;;;;;;;;5028869;28;20177;-76
2022/06/21 06:55:59;;;;;;;11.88;4.10;;;;;;;;;;5017397;28;20026;-76
2022/06/21 06:58:28;;;;;;;13.00;5.38;;;;;;;;;;5029157;28;20041;-76
2022/06/21 07:00:56;;;;;;;15.32;5.72;;;;;;;;;;5027804;28;20062;-76
2022/06/21 07:03:25;;;;;;;13.35;4.00;;;;;;;;;;5030750;28;20125;-76
2022/06/21 07:06:07;;;;;;;9.30;3.95;;;;;;;;;;5017116;28;20038;-76
2022/06/21 07:08:37;;;;;;;12.13;4.38;;;;;;;;;;5016242;28;20056;-77
2022/06/21 07:11:23;;;;;;;13.90;4.35;;;;;;;;;;5025670;28;20033;-76
2022/06/21 07:13:50;;;;;;;12.52;4.80;;;;;;;;;;5021409;28;20048;-76
2022/06/21 07:16:19;;;;;;;16.80;5.60;;;;;;;;;;5027662;28;20037;-76
2022/06/21 07:18:50;;;;;;;20.15;5.97;;;;;;;;;;5029442;28;20029;-76
2022/06/21 07:21:17;;;;;;;15.43;4.97;;;;;;;;;;5020738;28;20034;-76
2022/06/21 07:23:44;;;;;;;9.57;5.03;;;;;;;;;;5029121;28;20107;-76
2022/06/21 07:26:19;;;;;;;14.82;5.28;;;;;;;;;;5024333;28;20092;-76
2022/06/21 07:28:50;;;;;;;17.25;5.43;;;;;;;;;;5025114;28;20049;-76
2022/06/21 07:31:22;;;;;;;30.92;5.63;;;;;;;;;;5023588;28;20030;-76
2022/06/21 07:33:50;;;;;;;22.00;6.50;;;;;;;;;;5035683;28;20037;-76
2022/06/21 07:36:25;;;;;;;21.20;5.90;;;;;;;;;;5027391;28;20215;-76
2022/06/21 07:38:57;;;;;;;25.35;7.22;;;;;;;;;;5025896;28;20033;-76
2022/06/21 07:41:43;;;;;;;21.23;6.93;;;;;;;;;;5022231;28;20108;-77
2022/06/21 07:44:20;;;;;;;23.02;6.25;;;;;;;;;;5019757;28;20045;-76
2022/06/21 07:46:48;;;;;;;20.48;6.40;;;;;;;;;;5026762;28;20060;-76
2022/06/21 07:49:23;;;;;;;21.92;7.63;;;;;;;;;;5029004;28;20045;-76
2022/06/21 07:51:57;;;;;;;15.13;5.82;;;;;;;;;;5027522;28;20029;-76
2022/06/21 07:54:23;;;;;;;20.80;6.57;;;;;;;;;;5023702;28;20117;-76
2022/06/21 07:56:51;;;;;;;20.10;6.80;;;;;;;;;;5027626;28;20104;-76
2022/06/21 07:59:19;;;;;;;26.63;6.18;;;;;;;;;;5024042;28;20033;-76
2022/06/21 08:07:31;;;;;;;14.25;5.43;;;;;;;;;;5023896;28;20048;-76
2022/06/21 08:10:00;;;;;;;20.85;6.20;;;;;;;;;;5027995;28;20502;-76
2022/06/21 08:12:26;;;;;;;12.60;5.47;;;;;;;;;;5015458;28;20069;-76
2022/06/21 08:14:52;;;;;;;18.55;5.13;;;;;;;;;;5028597;28;20037;-76
2022/06/21 08:17:21;;;;;;;22.38;5.85;;;;;;;;;;5026271;28;20111;-76
2022/06/21 08:19:52;;;;;;;15.77;4.97;;;;;;;;;;5028350;28;20037;-76
2022/06/21 08:22:39;;;;;;;17.08;6.00;;;;;;;;;;5019546;28;20041;-77
2022/06/21 08:25:13;;;;;;;17.30;5.93;;;;;;;;;;5019143;28;20053;-76
2022/06/21 08:27:39;;;;;;;15.32;4.85;;;;;;;;;;5026058;28;20075;-76
2022/06/21 08:30:12;;;;;;;16.83;4.80;;;;;;;;;;5030789;28;20045;-76
2022/06/21 08:32:44;;;;;;;14.20;5.13;;;;;;;;;;5022547;28;20108;-76
2022/06/21 08:35:23;;;;;;;13.85;4.60;;;;;;;;;;5029920;28;20085;-77
2022/06/21 08:37:52;;;;;;;18.42;5.75;;;;;;;;;;5027915;28;20029;-76
2022/06/21 08:40:42;;;;;;;20.77;5.28;;;;;;;;;;5032875;28;20041;-77
2022/06/21 08:43:08;;;;;;;19.50;4.95;;;;;;;;;;5031765;28;20045;-77
2022/06/21 08:45:46;;;;;;;17.38;5.40;;;;;;;;;;5030112;28;20075;-76
2022/06/21 08:48:12;;;;;;;12.68;4.10;;;;;;;;;;5024782;28;20026;-76
2022/06/21 08:51:04;;;;;;;13.05;5.57;;;;;;;;;;5028204;28;20124;-77
2022/06/21 08:53:30;;;;;;;17.92;5.10;;;;;;;;;;5017872;28;20076;-77
2022/06/21 08:55:56;;;;;;;10.88;5.00;;;;;;;;;;5029129;28;20605;-77
2022/06/21 08:58:41;;;;;;;13.13;4.25;;;;;;;;;;5023281;28;20033;-77
2022/06/21 09:01:23;;;;;;;12.30;4.43;;;;;;;;;;5018977;28;20112;-77
2022/06/21 09:03:54;;;;;;;16.55;3.90;;;;;;;;;;5030388;28;20701;-77
2022/06/21 09:06:39;;;;;;;13.90;4.45;;;;;;;;;;5027000;28;20048;-76
2022/06/21 09:09:05;;;;;;;14.10;5.10;;;;;;;;;;5018403;28;20042;-77
2022/06/21 09:11:46;;;;;;;13.75;4.88;;;;;;;;;;5021204;28;20116;-77
2022/06/21 09:14:15;;;;;;;13.70;4.05;;;;;;;;;;5024145;28;20690;-77
2022/06/21 09:16:47;;;;;;;35.22;5.25;;;;;;;;;;5030604;28;20471;-77
2022/06/21 09:19:23;;;;;;;14.30;4.30;;;;;;;;;;5029803;28;20478;-77
2022/06/21 09:22:07;;;;;;;12.27;4.57;;;;;;;;;;5027808;28;20431;-77
2022/06/21 09:24:40;;;;;;;15.10;4.57;;;;;;;;;;5022935;28;20062;-77
2022/06/21 09:27:17;;;;;;;10.27;4.18;;;;;;;;;;5025668;28;20490;-76
2022/06/21 09:30:03;;;;;;;15.70;4.95;;;;;;;;;;5015699;28;20046;-77
2022/06/21 09:32:29;;;;;;;14.98;5.32;;;;;;;;;;5026000;28;20407;-77
2022/06/21 09:35:05;;;;;;;15.57;5.10;;;;;;;;;;5028920;28;20049;-77
2022/06/21 09:37:37;;;;;;;11.63;4.78;;;;;;;;;;5024971;28;20030;-77
2022/06/21 09:40:12;;;;;;;11.27;4.55;;;;;;;;;;5028762;28;20066;-77
2022/06/21 09:42:57;;;;;;;10.57;4.85;;;;;;;;;;5028424;28;20409;-77
2022/06/21 09:45:23;;;;;;;13.85;4.68;;;;;;;;;;5023446;28;20041;-77
2022/06/21 09:47:59;;;;;;;16.00;4.50;;;;;;;;;;5023668;28;20073;-77
2022/06/21 09:50:28;;;;;;;19.40;5.18;;;;;;;;;;5022819;28;20042;-77
2022/06/21 09:53:00;;;;;;;14.48;4.72;;;;;;;;;;5030348;28;20379;-77
2022/06/21 09:55:26;;;;;;;15.02;4.80;;;;;;;;;;5029587;28;20112;-77
2022/06/21 09:57:57;;;;;;;12.77;4.90;;;;;;;;;;5030548;28;20100;-77
2022/06/21 10:00:26;;;;;;;17.35;4.30;;;;;;;;;;5020985;28;20049;-77
2022/06/21 10:03:07;;;;;;;11.85;4.88;;;;;;;;;;5017661;28;20041;-77
2022/06/21 10:05:40;;;;;;;18.55;4.90;;;;;;;;;;5024039;28;20037;-77
2022/06/21 10:08:09;;;;;;;13.95;4.47;;;;;;;;;;5025608;28;20025;-77
2022/06/21 10:10:47;;;;;;;12.48;4.78;;;;;;;;;;5023437;28;20478;-77
2022/06/21 10:13:41;;;;;;;15.38;4.90;;;;;;;;;;5023499;28;20029;-77
2022/06/21 10:16:19;;;;;;;13.85;5.43;;;;;;;;;;5025942;28;20037;-77
2022/06/21 10:19:04;;;;;;;13.88;5.10;;;;;;;;;;5025883;28;20044;-77
2022/06/21 10:21:48;;;;;;;14.27;5.05;;;;;;;;;;5027567;28;20882;-77
2022/06/21 10:24:29;;;;;;;14.20;4.30;;;;;;;;;;5028047;28;20049;-77
2022/06/21 10:27:15;;;;;;;18.25;4.32;;;;;;;;;;5026433;28;20428;-77
2022/06/21 10:29:47;;;;;;;17.98;5.32;;;;;;;;;;5025453;28;20475;-77
2022/06/21 10:32:24;;;;;;;12.48;4.60;;;;;;;;;;5026701;28;20073;-77
2022/06/21 10:35:03;;;;;;;18.52;5.13;;;;;;;;;;5029829;28;20125;-77
2022/06/21 10:37:29;;;;;;;13.77;4.57;;;;;;;;;;5018314;28;20042;-77
2022/06/21 10:40:14;;;;;;;11.80;4.32;;;;;;;;;;5022651;28;20487;-77
2022/06/21 10:43:02;;;;;;;16.33;4.60;;;;;;;;;;5020617;28;20037;-77
2022/06/21 10:45:28;;;;;;;18.55;4.97;;;;;;;;;;5023924;28;20042;-77
2022/06/21 10:48:20;;;;;;;15.07;4.88;;;;;;;;;;5032845;28;20087;-78
2022/06/21 10:50:57;;;;;;;15.68;5.40;;;;;;;;;;5029154;28;20029;-77
2022/06/21 10:53:41;;;;;;;17.17;4.40;;;;;;;;;;5024033;28;20076;-77
2022/06/21 10:59:02;;;;;;;15.15;4.38;;;;;;;;;;5025140;28;20107;-77
2022/06/21 11:01:37;;;;;;;14.05;3.60;;;;;;;;;;5023603;28;20053;-77
2022/06/21 11:04:21;;;;;;;10.80;4.05;;;;;;;;;;5028760;28;20048;-77
2022/06/21 11:06:59;;;;;;;19.38;4.10;;;;;;;;;;5023485;28;20064;-77
2022/06/21 11:09:26;;;;;;;15.23;5.05;;;;;;;;;;5020103;28;20039;-77
2022/06/21 11:11:58;;;;;;;13.27;4.45;;;;;;;;;;5026393;28;20033;-77
2022/06/21 11:14:40;;;;;;;19.52;4.88;;;;;;;;;;5024448;28;20047;-77
2022/06/21 11:17:11;;;;;;;19.40;3.72;;;;;;;;;;5026958;28;20034;-77
2022/06/21 11:19:40;;;;;;;13.05;3.58;;;;;;;;;;5024435;28;20553;-77
2022/06/21 11:22:45;;;;;;;13.82;4.00;;;;;;;;;;5022372;28;20488;-77
2022/06/21 11:25:17;;;;;;;13.15;3.60;;;;;;;;;;4996407;28;20142;-78
2022/06/21 11:28:01;;;;;;;19.70;4.32;;;;;;;;;;4999315;28;20038;-77
2022/06/21 11:30:31;;;;;;;25.75;3.90;;;;;;;;;;5016116;28;20080;-77
2022/06/21 11:33:12;;;;;;;15.57;4.15;;;;;;;;;;5027415;28;20029;-77
2022/06/21 11:35:45;;;;;;;20.63;3.45;;;;;;;;;;5027715;28;20030;-77
2022/06/21 11:38:20;;;;;;;21.38;3.83;;;;;;;;;;5020303;28;20554;-77
2022/06/21 11:40:46;;;;;;;22.58;4.25;;;;;;;;;;5023783;28;20040;-77
2022/06/21 11:43:30;;;;;;;21.75;4.20;;;;;;;;;;5023161;28;20112;-77
2022/06/21 11:45:57;;;;;;;18.70;4.63;;;;;;;;;;5013057;28;20037;-77
2022/06/21 11:48:37;;;;;;;23.33;4.32;;;;;;;;;;5023009;28;20045;-77
2022/06/21 11:51:03;;;;;;;19.45;4.55;;;;;;;;;;5026914;28;20033;-76
2022/06/21 11:53:36;;;;;;;18.55;3.50;;;;;;;;;;5028962;28;20029;-77
2022/06/21 11:56:14;;;;;;;18.10;3.80;;;;;;;;;;5029433;28;20100;-78
2022/06/21 11:59:06;;;;;;;25.58;4.25;;;;;;;;;;5027371;28;20080;-77
2022/06/21 12:01:35;;;;;;;20.52;4.00;;;;;;;;;;5022269;28;20042;-77
2022/06/21 12:04:16;;;;;;;18.33;3.40;;;;;;;;;;5025065;28;20037;-78
2022/06/21 12:07:05;;;;;;;21.15;4.20;;;;;;;;;;5027716;28;20075;-78
2022/06/21 12:09:50;;;;;;;24.58;4.75;;;;;;;;;;5018507;28;20065;-77
2022/06/21 12:12:36;;;;;;;40.17;6.35;;;;;;;;;;5030226;28;20447;-78
2022/06/21 12:15:14;;;;;;;29.27;4.75;;;;;;;;;;5022616;28;20045;-77
2022/06/21 12:17:43;;;;;;;21.00;4.35;;;;;;;;;;5029253;28;20032;-78
2022/06/21 12:20:15;;;;;;;18.98;3.92;;;;;;;;;;5030592;28;20037;-77
2022/06/21 12:22:44;;;;;;;26.33;4.03;;;;;;;;;;5027860;28;20026;-78
2022/06/21 12:25:11;;;;;;;26.45;4.88;;;;;;;;;;5030559;28;20831;-77
2022/06/21 12:27:37;;;;;;;19.45;3.72;;;;;;;;;;5026850;28;20331;-78
2022/06/21 12:30:21;;;;;;;23.17;3.80;;;;;;;;;;5019718;28;20620;-77
2022/06/21 12:32:48;;;;;;;23.77;3.90;;;;;;;;;;5026521;28;20110;-78
2022/06/21 12:35:16;;;;;;;27.08;4.35;;;;;;;;;;5028385;28;20072;-78
2022/06/21 12:37:42;;;;;;;17.85;4.30;;;;;;;;;;5031671;28;20080;-78
2022/06/21 12:40:14;;;;;;;23.45;4.68;;;;;;;;;;5022879;28;20041;-78
2022/06/21 12:42:52;;;;;;;19.75;4.10;;;;;;;;;;5031523;28;20060;-78
2022/06/21 12:45:34;;;;;;;23.42;4.93;;;;;;;;;;5029015;28;20155;-78
2022/06/21 12:48:01;;;;;;;20.13;4.32;;;;;;;;;;5026465;28;20056;-77
2022/06/21 12:50:30;;;;;;;27.00;5.03;;;;;;;;;;5027485;28;20824;-78
2022/06/21 12:52:59;;;;;;;23.45;4.65;;;;;;;;;;5022989;28;20034;-77
2022/06/21 12:55:35;;;;;;;25.25;5.68;;;;;;;;;;5023402;28;20045;-78
2022/06/21 12:58:04;;;;;;;24.35;4.03;;;;;;;;;;5027726;28;20017;-78
2022/06/21 13:00:39;;;;;;;30.08;4.43;;;;;;;;;;5024913;28;20033;-77
2022/06/21 13:03:24;;;;;;;29.17;5.03;;;;;;;;;;5025547;28;20498;-77
2022/06/21 13:06:00;;;;;;;24.20;3.95;;;;;;;;;;5025528;28;20041;-77
2022/06/21 13:08:45;;;;;;;28.88;5.43;;;;;;;;;;5023274;28;20037;-77
2022/06/21 13:11:14;;;;;;;29.67;4.63;;;;;;;;;;5024565;28;20033;-78
2022/06/21 13:13:49;;;;;;;25.25;4.15;;;;;;;;;;5024812;28;20638;-78
2022/06/21 13:16:29;;;;;;;24.50;5.50;;;;;;;;;;5025281;28;20025;-78
2022/06/21 13:18:59;;;;;;;30.90;4.28;;;;;;;;;;5030725;28;20033;-78
2022/06/21 13:21:41;;;;;;;28.15;4.50;;;;;;;;;;5027806;28;20026;-78
2022/06/21 13:24:07;;;;;;;33.53;4.93;;;;;;;;;;5029559;28;20829;-78
2022/06/21 13:26:53;;;;;;;17.10;3.15;;;;;;;;;;5016425;28;20029;-77
2022/06/21 13:29:20;;;;;;;25.70;4.18;;;;;;;;;;5026787;28;20523;-77
2022/06/21 13:31:53;;;;;;;24.38;4.28;;;;;;;;;;5017920;28;20116;-78
2022/06/21 13:34:28;;;;;;;22.55;3.78;;;;;;;;;;5028054;28;20383;-78
2022/06/21 13:36:55;;;;;;;26.02;4.25;;;;;;;;;;5028774;28;20037;-78
2022/06/21 13:39:21;;;;;;;23.17;4.35;;;;;;;;;;5021991;28;20061;-77
2022/06/21 13:44:52;;;;;;;20.83;3.90;;;;;;;;;;5022635;28;20133;-78
2022/06/21 13:47:39;;;;;;;24.80;4.03;;;;;;;;;;5025636;28;20546;-78
2022/06/21 13:50:18;;;;;;;24.55;3.88;;;;;;;;;;5026360;28;20615;-78
2022/06/21 13:52:56;;;;;;;24.70;4.13;;;;;;;;;;5024611;28;20018;-78
2022/06/21 13:55:27;;;;;;;24.58;4.10;;;;;;;;;;5025833;28;20536;-78
2022/06/21 13:58:02;;;;;;;25.13;4.55;;;;;;;;;;5027736;28;20358;-78
2022/06/21 14:00:45;;;;;;;23.92;4.10;;;;;;;;;;5025192;28;20419;-77
2022/06/21 14:03:22;;;;;;;20.10;4.18;;;;;;;;;;5027704;28;20051;-77
2022/06/21 14:05:54;;;;;;;22.30;4.47;;;;;;;;;;5024004;28;20425;-77
2022/06/21 14:08:24;;;;;;;27.10;4.10;;;;;;;;;;5025451;28;20042;-77
2022/06/21 14:10:56;;;;;;;26.67;4.53;;;;;;;;;;5023600;28;20044;-77
2022/06/21 14:13:26;;;;;;;28.77;4.43;;;;;;;;;;5027567;28;20038;-77
2022/06/21 14:16:02;;;;;;;20.23;4.68;;;;;;;;;;5028524;28;20079;-77
2022/06/21 14:18:43;;;;;;;27.23;4.07;;;;;;;;;;5021354;28;20080;-78
2022/06/21 14:21:25;;;;;;;23.60;4.03;;;;;;;;;;5019889;28;20045;-77
2022/06/21 14:23:54;;;;;;;31.02;5.25;;;;;;;;;;5021540;28;20049;-77
2022/06/21 14:26:24;;;;;;;26.55;5.03;;;;;;;;;;5019093;28;20040;-77
2022/06/21 14:28:50;;;;;;;23.38;4.18;;;;;;;;;;5025685;28;20037;-77
2022/06/21 14:31:19;;;;;;;26.88;4.85;;;;;;;;;;5026460;28;20043;-77
2022/06/21 14:33:50;;;;;;;25.75;3.97;;;;;;;;;;5032156;28;20057;-77
2022/06/21 14:36:16;;;;;;;25.58;4.28;;;;;;;;;;5025412;28;20036;-77
2022/06/21 14:38:56;;;;;;;24.65;3.78;;;;;;;;;;5020891;28;20037;-77
2022/06/21 14:41:28;;;;;;;29.75;4.28;;;;;;;;;;5019103;28;20686;-78
2022/06/21 14:43:59;;;;;;;25.60;3.90;;;;;;;;;;5023986;28;20037;-77
2022/06/21 14:46:33;;;;;;;19.70;4.50;;;;;;;;;;5026311;28;20060;-77
2022/06/21 14:49:01;;;;;;;28.08;3.85;;;;;;;;;;5025817;28;20848;-77
2022/06/21 14:51:30;;;;;;;29.75;4.65;;;;;;;;;;5021581;28;20819;-77
2022/06/21 14:53:56;;;;;;;29.67;4.53;;;;;;;;;;5026527;28;20072;-77
2022/06/21 14:56:44;;;;;;;25.67;4.18;;;;;;;;;;5024376;28;20088;-77
2022/06/21 14:59:28;;;;;;;13.48;3.47;;;;;;;;;;5024574;28;20594;-77
2022/06/21 15:02:08;;;;;;;24.15;4.40;;;;;;;;;;5016775;28;20057;-77
2022/06/21 15:04:45;;;;;;;25.17;3.53;;;;;;;;;;5029516;28;20029;-78
2022/06/21 15:07:24;;;;;;;23.42;4.28;;;;;;;;;;5022637;28;20038;-77
2022/06/21 15:10:03;;;;;;;19.67;3.63;;;;;;;;;;5023110;28;20052;-78
2022/06/21 15:12:31;;;;;;;21.73;3.15;;;;;;;;;;5027809;28;20471;-77
2022/06/21 15:15:02;;;;;;;21.58;3.80;;;;;;;;;;5019147;28;20052;-78
2022/06/21 15:17:34;;;;;;;22.58;4.40;;;;;;;;;;5023094;28;20029;-78
2022/06/21 15:20:09;;;;;;;24.52;4.43;;;;;;;;;;5023347;28;20085;-78